Historyczne dane pomiarowe

Dodano dane terminowe – wersja testowa.

Dane z okresu 1951-2019

Wersja bazy: 1.34 [2019-03-16, lista zmian], aktualizacja planowana na 2019-04-15

Dane meteo z obszaru Polski uzyskane na podstawie danych udostępnionych przez Instytut Meteorologii i Gospodarki Wodnej – Państwowy Instytut Badawczy.

 

Wybierz Datę:    

       

TemperaturaWilgotnośćWiatrCiśnienieOpadyŚniegCzas trwania zjawisk
 Stacja t tx tn tng RH VA  wxwx mslp ppp RRR   cm mm wxwxwxwxwxwxwx
1961-08-14 12.7 19.2 6.9 4.8 85.0- 2.3 1.0---- 0.0------------
1961-08-13 13.2 15.8 12.4 12.5 93.8- 6.7 2.3---- 3.4------------
1961-08-12 17.0 24.2 14.1 12.0 89.3- 8.0 1.0---- 29.1------------
1961-08-11 20.0 27.3 17.8 15.0 89.5- 6.7 3.3---- 0.3------------
1961-08-10 24.3 31.0 18.0 13.9 80.8- 4.7 1.0---- 0.0------------
1961-08-09 21.7 28.2 16.2 13.1 81.0- 6.3 1.0---- 2.9------------
1961-08-08 19.1 23.4 15.5 15.0 81.8- 6.7 1.7---- 0.0------------
1961-08-07 20.2 25.3 15.6 11.8 80.3- 6.3 2.7---- 2.3------------
1961-08-06 23.0 30.3 14.5 11.1 69.5- 0.0 2.3---- 0.0------------
1961-08-05 18.5 24.5 14.1 13.6 79.5- 3.7 1.3---- 0.0------------
1961-08-04 15.8 20.6 8.2 5.3 70.5- 5.7 1.7---- 0.0------------
1961-08-03 15.7 20.5 13.8 11.8 82.5- 4.7 1.7---- 0.0------------
1961-08-02 18.0 26.5 9.6 6.5 78.8- 2.7 1.3---- 0.0------------
1961-08-01 14.6 21.2 11.2 9.0 76.5- 3.7 4.0---- 0.0------------
1961-07-31 12.2 13.7 11.4- 96.0- 8.0 3.0---- 42.5------------
1961-07-30 11.9 14.2 10.9- 95.0- 8.0 1.0---- 33.9------------
1961-07-29 14.0 17.9 11.5- 80.0- 6.0 2.0---- 0.3------------
1961-07-28 18.3 24.2 14.9- 84.0- 7.7 3.0---- 17.9------------
1961-07-27 19.0 25.8 13.3- 74.5- 7.3 2.0---- 0.2------------
1961-07-26 16.4 23.0 9.2- 70.0- 5.3 2.7---- 0.0------------
1961-07-25 13.8 16.2 11.4- 79.0- 8.0 1.3---- 0.0------------
1961-07-24 13.5 17.0 11.7- 77.0- 7.3 1.7---- 0.0------------
1961-07-23 14.3 19.4 11.6- 80.0- 7.0 2.7---- 0.0------------
1961-07-22 14.7 17.7 12.5- 84.5- 6.3 3.0---- 0.6------------
1961-07-21 13.6 16.8 10.8- 90.3- 6.7 1.3---- 4.8------------
1961-07-20 15.3 21.0 9.3- 78.3- 4.0 2.3---- 2.4------------
1961-07-19 14.2 20.1 11.2- 86.0- 5.3 1.3---- 0.0------------
1961-07-18 14.4 18.7 9.6- 80.8- 7.0 2.0---- 0.0------------
1961-07-17 14.5 20.7 11.4- 78.5- 4.3 3.7---- 2.2------------
1961-07-16 16.8 21.9 13.4- 81.5- 6.7 2.7---- 0.5------------
1961-07-15 18.3 24.1 8.9- 76.0- 6.3 3.0---- 16.2------------
1961-07-14 13.9 19.3 12.9- 77.8- 5.0 4.0---- 0.0------------
1961-07-13 19.5 28.3 14.9- 80.8- 4.3 3.3---- 37.0------------
1961-07-12 20.2 28.0 13.1- 76.8- 2.7 1.7---- 0.0------------
1961-07-11 14.8 21.2 7.3- 78.0- 2.7 1.7---- 0.7------------
1961-07-10 13.3 17.5 9.6- 75.0- 5.0 3.0---- 0.6------------
1961-07-09 13.3 19.3 7.8- 84.5- 7.0 3.0---- 0.4------------
1961-07-08 14.8 21.5 6.6- 69.5- 2.0 2.0---- 0.0------------
1961-07-07 12.8 17.0 9.7- 74.0- 6.3 1.7---- 0.0------------
1961-07-06 11.5 15.5 7.5- 78.3- 8.0 3.0---- 0.0------------
1961-07-05 13.9 17.6 12.7- 75.3- 3.7 4.7---- 0.0------------
1961-07-04 18.9 28.7 14.7- 90.5- 8.0 2.0---- 7.3------------
1961-07-03 23.8 31.5 13.7- 67.3- 1.0 1.7---- 0.0------------
1961-07-02 21.1 30.1 12.7- 64.8- 0.0 1.7---- 0.0------------
1961-07-01 20.3 27.9 11.7- 67.0- 1.0 1.0---- 0.0------------
1961-06-30 17.9 25.4 9.6- 73.5- 1.0 1.0---- 0.0------------
1961-06-29 15.0 20.7 8.7- 73.3- 2.3 3.3---- 0.0------------
1961-06-28 13.5 19.6 12.6- 75.5- 4.3 4.0---- 0.8------------
1961-06-27 23.2 32.8 14.9- 73.8- 4.0 3.0---- 42.6------------
1961-06-26 22.1 29.8 14.6- 71.3- 4.0 2.0---- 0.0------------
1961-06-25 21.4 30.3 10.0- 56.8- 0.0 2.0---- 0.0------------
1961-06-24 18.2 24.5 11.6- 71.5- 2.7 3.3---- 0.0------------
1961-06-23 17.8 23.4 15.3- 74.3- 4.0 2.7---- 0.0------------
1961-06-22 18.7 27.3 8.4- 67.0- 3.3 1.0---- 3.3------------
1961-06-21 17.5 24.2 6.9- 63.3- 0.7 2.0---- 0.0------------
1961-06-20 14.4 20.8 7.8- 62.5- 1.0 3.0---- 0.0------------
1961-06-19 16.2 21.5 14.1- 84.5- 3.0 2.0---- 0.0------------
1961-06-18 19.8 27.0 8.9- 64.3- 0.3 2.3---- 0.0------------
1961-06-17 15.6 23.0 6.8- 72.8- 1.3 2.7---- 0.0------------
1961-06-16 11.7 17.9 6.2- 79.5- 5.3 1.3---- 0.0------------
487.6 ms

 

Źródłem pochodzenia danych jest Instytut Meteorologii i Gospodarki Wodnej – Państwowy Instytut Badawczy. Dane Instytutu Meteorologii i Gospodarki Wodnej – Państwowego Instytutu Badawczego zostały przetworzone.

Dane źródłowe można odnaleźć na stronie https://dane.imgw.pl